sensor_id;sensor_type;location;lat;lon;timestamp;P1;durP1;ratioP1;P2;durP2;ratioP2
42110;SDS011;27766;52.174;5.456;2023-07-20T00:00:15;3.20;;;2.45;;
42110;SDS011;27766;52.174;5.456;2023-07-20T00:02:42;3.13;;;2.58;;
42110;SDS011;27766;52.174;5.456;2023-07-20T00:05:10;2.17;;;1.60;;
42110;SDS011;27766;52.174;5.456;2023-07-20T00:07:37;3.25;;;1.85;;
42110;SDS011;27766;52.174;5.456;2023-07-20T00:10:04;1.77;;;1.63;;
42110;SDS011;27766;52.174;5.456;2023-07-20T00:12:32;1.65;;;1.30;;
42110;SDS011;27766;52.174;5.456;2023-07-20T00:15:00;2.33;;;1.80;;
42110;SDS011;27766;52.174;5.456;2023-07-20T00:17:27;1.75;;;1.50;;
42110;SDS011;27766;52.174;5.456;2023-07-20T00:19:55;2.05;;;1.63;;
42110;SDS011;27766;52.174;5.456;2023-07-20T00:22:22;2.38;;;1.33;;
42110;SDS011;27766;52.174;5.456;2023-07-20T00:24:49;1.30;;;1.20;;
42110;SDS011;27766;52.174;5.456;2023-07-20T00:27:17;2.95;;;1.45;;
42110;SDS011;27766;52.174;5.456;2023-07-20T00:29:44;2.10;;;1.55;;
42110;SDS011;27766;52.174;5.456;2023-07-20T00:32:11;1.75;;;1.10;;
42110;SDS011;27766;52.174;5.456;2023-07-20T00:34:39;1.55;;;1.02;;
42110;SDS011;27766;52.174;5.456;2023-07-20T00:37:06;1.65;;;1.20;;
42110;SDS011;27766;52.174;5.456;2023-07-20T00:39:33;1.35;;;1.00;;
42110;SDS011;27766;52.174;5.456;2023-07-20T00:42:00;2.28;;;1.05;;
42110;SDS011;27766;52.174;5.456;2023-07-20T00:44:28;1.27;;;1.15;;
42110;SDS011;27766;52.174;5.456;2023-07-20T00:46:55;1.90;;;1.10;;
42110;SDS011;27766;52.174;5.456;2023-07-20T00:49:22;2.58;;;0.98;;
42110;SDS011;27766;52.174;5.456;2023-07-20T00:51:50;1.27;;;0.90;;
42110;SDS011;27766;52.174;5.456;2023-07-20T00:54:18;1.02;;;0.88;;
42110;SDS011;27766;52.174;5.456;2023-07-20T00:56:45;1.17;;;0.98;;
42110;SDS011;27766;52.174;5.456;2023-07-20T00:59:13;1.58;;;1.10;;
42110;SDS011;27766;52.174;5.456;2023-07-20T01:01:41;1.13;;;1.02;;
42110;SDS011;27766;52.174;5.456;2023-07-20T01:04:08;5.55;;;1.40;;
42110;SDS011;27766;52.174;5.456;2023-07-20T01:09:08;1.38;;;0.95;;
42110;SDS011;27766;52.174;5.456;2023-07-20T01:11:49;1.30;;;1.08;;
42110;SDS011;27766;52.174;5.456;2023-07-20T01:14:26;1.67;;;1.17;;
42110;SDS011;27766;52.174;5.456;2023-07-20T01:16:54;1.40;;;1.30;;
42110;SDS011;27766;52.174;5.456;2023-07-20T01:19:21;1.92;;;1.05;;
42110;SDS011;27766;52.174;5.456;2023-07-20T01:21:57;1.17;;;1.08;;
42110;SDS011;27766;52.174;5.456;2023-07-20T01:24:37;2.63;;;1.08;;
42110;SDS011;27766;52.174;5.456;2023-07-20T01:27:36;1.23;;;1.02;;
42110;SDS011;27766;52.174;5.456;2023-07-20T01:30:35;1.15;;;0.90;;
42110;SDS011;27766;52.174;5.456;2023-07-20T01:33:13;1.75;;;1.13;;
42110;SDS011;27766;52.174;5.456;2023-07-20T01:35:43;1.45;;;1.10;;
42110;SDS011;27766;52.174;5.456;2023-07-20T01:38:12;1.23;;;1.05;;
42110;SDS011;27766;52.174;5.456;2023-07-20T01:40:41;1.40;;;1.10;;
42110;SDS011;27766;52.174;5.456;2023-07-20T01:43:08;1.20;;;0.95;;
42110;SDS011;27766;52.174;5.456;2023-07-20T01:45:36;1.58;;;1.27;;
42110;SDS011;27766;52.174;5.456;2023-07-20T01:48:03;3.30;;;1.60;;
42110;SDS011;27766;52.174;5.456;2023-07-20T01:50:31;1.50;;;1.30;;
42110;SDS011;27766;52.174;5.456;2023-07-20T01:52:59;2.28;;;1.15;;
42110;SDS011;27766;52.174;5.456;2023-07-20T01:55:27;1.42;;;0.93;;
42110;SDS011;27766;52.174;5.456;2023-07-20T01:57:54;1.48;;;1.08;;
42110;SDS011;27766;52.174;5.456;2023-07-20T02:00:22;2.17;;;1.38;;
42110;SDS011;27766;52.174;5.456;2023-07-20T02:02:51;1.30;;;1.05;;
42110;SDS011;27766;52.174;5.456;2023-07-20T02:05:18;1.75;;;1.05;;
42110;SDS011;27766;52.174;5.456;2023-07-20T02:07:46;1.40;;;1.05;;
42110;SDS011;27766;52.174;5.456;2023-07-20T02:10:13;1.35;;;1.25;;
42110;SDS011;27766;52.174;5.456;2023-07-20T02:12:40;1.75;;;1.27;;
42110;SDS011;27766;52.174;5.456;2023-07-20T02:15:08;1.35;;;1.20;;
42110;SDS011;27766;52.174;5.456;2023-07-20T02:17:36;2.65;;;1.65;;
42110;SDS011;27766;52.174;5.456;2023-07-20T02:20:04;2.83;;;1.60;;
42110;SDS011;27766;52.174;5.456;2023-07-20T02:22:31;2.35;;;2.15;;
42110;SDS011;27766;52.174;5.456;2023-07-20T02:24:59;2.47;;;1.95;;
42110;SDS011;27766;52.174;5.456;2023-07-20T02:27:26;2.53;;;1.75;;
42110;SDS011;27766;52.174;5.456;2023-07-20T02:29:53;2.28;;;2.08;;
42110;SDS011;27766;52.174;5.456;2023-07-20T02:32:21;2.60;;;2.20;;
42110;SDS011;27766;52.174;5.456;2023-07-20T02:34:48;4.75;;;2.30;;
42110;SDS011;27766;52.174;5.456;2023-07-20T02:37:16;3.75;;;2.75;;
42110;SDS011;27766;52.174;5.456;2023-07-20T02:39:43;3.22;;;2.63;;
42110;SDS011;27766;52.174;5.456;2023-07-20T02:42:11;3.90;;;2.80;;
42110;SDS011;27766;52.174;5.456;2023-07-20T02:44:38;2.92;;;2.60;;
42110;SDS011;27766;52.174;5.456;2023-07-20T02:47:06;5.32;;;2.47;;
42110;SDS011;27766;52.174;5.456;2023-07-20T02:49:34;5.68;;;2.47;;
42110;SDS011;27766;52.174;5.456;2023-07-20T02:52:01;3.20;;;2.05;;
42110;SDS011;27766;52.174;5.456;2023-07-20T02:54:28;4.43;;;2.58;;
42110;SDS011;27766;52.174;5.456;2023-07-20T02:56:57;3.50;;;2.30;;
42110;SDS011;27766;52.174;5.456;2023-07-20T02:59:24;2.65;;;2.20;;
42110;SDS011;27766;52.174;5.456;2023-07-20T03:01:51;2.67;;;2.33;;
42110;SDS011;27766;52.174;5.456;2023-07-20T03:04:19;4.18;;;2.78;;
42110;SDS011;27766;52.174;5.456;2023-07-20T03:06:46;2.80;;;2.40;;
42110;SDS011;27766;52.174;5.456;2023-07-20T03:09:13;2.60;;;2.05;;
42110;SDS011;27766;52.174;5.456;2023-07-20T03:11:42;2.85;;;2.40;;
42110;SDS011;27766;52.174;5.456;2023-07-20T03:14:09;3.00;;;2.47;;
42110;SDS011;27766;52.174;5.456;2023-07-20T03:16:37;3.00;;;2.47;;
42110;SDS011;27766;52.174;5.456;2023-07-20T03:19:04;3.33;;;2.50;;
42110;SDS011;27766;52.174;5.456;2023-07-20T03:21:32;4.22;;;2.58;;
42110;SDS011;27766;52.174;5.456;2023-07-20T03:23:59;3.50;;;2.45;;
42110;SDS011;27766;52.174;5.456;2023-07-20T03:26:26;4.50;;;3.08;;
42110;SDS011;27766;52.174;5.456;2023-07-20T03:28:54;4.18;;;2.72;;
42110;SDS011;27766;52.174;5.456;2023-07-20T03:31:24;3.38;;;2.63;;
42110;SDS011;27766;52.174;5.456;2023-07-20T03:33:51;3.03;;;2.30;;
42110;SDS011;27766;52.174;5.456;2023-07-20T03:36:19;4.88;;;2.80;;
42110;SDS011;27766;52.174;5.456;2023-07-20T03:38:48;4.78;;;2.50;;
42110;SDS011;27766;52.174;5.456;2023-07-20T03:41:15;4.88;;;3.28;;
42110;SDS011;27766;52.174;5.456;2023-07-20T03:43:43;5.05;;;2.80;;
42110;SDS011;27766;52.174;5.456;2023-07-20T03:46:10;3.50;;;2.47;;
42110;SDS011;27766;52.174;5.456;2023-07-20T03:48:37;4.63;;;3.03;;
42110;SDS011;27766;52.174;5.456;2023-07-20T03:51:05;4.03;;;3.00;;
42110;SDS011;27766;52.174;5.456;2023-07-20T03:53:32;4.70;;;2.88;;
42110;SDS011;27766;52.174;5.456;2023-07-20T03:55:59;4.47;;;3.10;;
42110;SDS011;27766;52.174;5.456;2023-07-20T03:58:27;3.55;;;3.05;;
42110;SDS011;27766;52.174;5.456;2023-07-20T04:00:54;4.20;;;2.78;;
42110;SDS011;27766;52.174;5.456;2023-07-20T04:03:22;3.58;;;2.85;;
42110;SDS011;27766;52.174;5.456;2023-07-20T04:05:53;3.45;;;3.00;;
42110;SDS011;27766;52.174;5.456;2023-07-20T04:08:23;3.80;;;2.80;;
42110;SDS011;27766;52.174;5.456;2023-07-20T04:10:51;4.53;;;2.92;;
42110;SDS011;27766;52.174;5.456;2023-07-20T04:13:19;4.10;;;3.38;;
42110;SDS011;27766;52.174;5.456;2023-07-20T04:15:47;3.85;;;2.95;;
42110;SDS011;27766;52.174;5.456;2023-07-20T04:18:14;2.85;;;2.55;;
42110;SDS011;27766;52.174;5.456;2023-07-20T04:20:41;4.15;;;3.03;;
42110;SDS011;27766;52.174;5.456;2023-07-20T04:23:09;2.83;;;2.58;;
42110;SDS011;27766;52.174;5.456;2023-07-20T04:25:38;3.35;;;3.03;;
42110;SDS011;27766;52.174;5.456;2023-07-20T04:28:07;3.75;;;2.55;;
42110;SDS011;27766;52.174;5.456;2023-07-20T04:30:37;5.25;;;3.20;;
42110;SDS011;27766;52.174;5.456;2023-07-20T04:33:05;3.35;;;2.47;;
42110;SDS011;27766;52.174;5.456;2023-07-20T04:35:46;7.07;;;2.88;;
42110;SDS011;27766;52.174;5.456;2023-07-20T04:38:20;3.65;;;3.05;;
42110;SDS011;27766;52.174;5.456;2023-07-20T04:40:49;4.18;;;3.00;;
42110;SDS011;27766;52.174;5.456;2023-07-20T04:43:17;4.40;;;3.30;;
42110;SDS011;27766;52.174;5.456;2023-07-20T04:45:45;4.28;;;2.90;;
42110;SDS011;27766;52.174;5.456;2023-07-20T04:48:13;7.40;;;3.08;;
42110;SDS011;27766;52.174;5.456;2023-07-20T04:50:43;4.10;;;3.08;;
42110;SDS011;27766;52.174;5.456;2023-07-20T04:53:13;4.82;;;3.03;;
42110;SDS011;27766;52.174;5.456;2023-07-20T04:55:40;3.10;;;2.75;;
42110;SDS011;27766;52.174;5.456;2023-07-20T04:58:21;3.30;;;3.00;;
42110;SDS011;27766;52.174;5.456;2023-07-20T05:00:49;3.17;;;2.88;;
42110;SDS011;27766;52.174;5.456;2023-07-20T05:03:17;4.20;;;3.17;;
42110;SDS011;27766;52.174;5.456;2023-07-20T05:05:46;2.90;;;2.60;;
42110;SDS011;27766;52.174;5.456;2023-07-20T05:08:16;5.78;;;3.55;;
42110;SDS011;27766;52.174;5.456;2023-07-20T05:10:44;4.00;;;3.35;;
42110;SDS011;27766;52.174;5.456;2023-07-20T05:13:14;5.18;;;3.63;;
42110;SDS011;27766;52.174;5.456;2023-07-20T05:15:42;3.60;;;3.13;;
42110;SDS011;27766;52.174;5.456;2023-07-20T05:18:09;4.20;;;3.35;;
42110;SDS011;27766;52.174;5.456;2023-07-20T05:20:36;4.65;;;3.65;;
42110;SDS011;27766;52.174;5.456;2023-07-20T05:23:04;4.82;;;3.92;;
42110;SDS011;27766;52.174;5.456;2023-07-20T05:25:32;5.72;;;3.65;;
42110;SDS011;27766;52.174;5.456;2023-07-20T05:27:59;4.53;;;3.80;;
42110;SDS011;27766;52.174;5.456;2023-07-20T05:30:27;7.13;;;3.22;;
42110;SDS011;27766;52.174;5.456;2023-07-20T05:32:56;3.92;;;3.53;;
42110;SDS011;27766;52.174;5.456;2023-07-20T05:35:23;6.60;;;3.95;;
42110;SDS011;27766;52.174;5.456;2023-07-20T05:37:51;3.72;;;3.03;;
42110;SDS011;27766;52.174;5.456;2023-07-20T05:40:18;6.30;;;2.95;;
42110;SDS011;27766;52.174;5.456;2023-07-20T05:42:47;10.57;;;2.95;;
42110;SDS011;27766;52.174;5.456;2023-07-20T05:45:15;4.47;;;3.20;;
42110;SDS011;27766;52.174;5.456;2023-07-20T05:47:43;4.63;;;3.30;;
42110;SDS011;27766;52.174;5.456;2023-07-20T05:50:10;4.55;;;2.78;;
42110;SDS011;27766;52.174;5.456;2023-07-20T05:52:37;3.47;;;2.60;;
42110;SDS011;27766;52.174;5.456;2023-07-20T05:55:06;3.17;;;2.35;;
42110;SDS011;27766;52.174;5.456;2023-07-20T05:57:33;2.60;;;2.38;;
42110;SDS011;27766;52.174;5.456;2023-07-20T06:00:02;3.38;;;2.53;;
42110;SDS011;27766;52.174;5.456;2023-07-20T06:02:30;4.13;;;2.55;;
42110;SDS011;27766;52.174;5.456;2023-07-20T06:04:59;2.22;;;2.03;;
42110;SDS011;27766;52.174;5.456;2023-07-20T06:07:27;3.85;;;2.10;;
42110;SDS011;27766;52.174;5.456;2023-07-20T06:09:54;2.92;;;1.60;;
42110;SDS011;27766;52.174;5.456;2023-07-20T06:12:22;6.38;;;1.65;;
42110;SDS011;27766;52.174;5.456;2023-07-20T06:14:49;1.85;;;1.15;;
42110;SDS011;27766;52.174;5.456;2023-07-20T06:17:17;1.98;;;1.33;;
42110;SDS011;27766;52.174;5.456;2023-07-20T06:19:44;1.73;;;1.27;;
42110;SDS011;27766;52.174;5.456;2023-07-20T06:22:11;2.63;;;1.27;;
42110;SDS011;27766;52.174;5.456;2023-07-20T06:24:39;2.15;;;1.13;;
42110;SDS011;27766;52.174;5.456;2023-07-20T06:27:06;4.38;;;1.70;;
42110;SDS011;27766;52.174;5.456;2023-07-20T06:29:33;3.97;;;1.63;;
42110;SDS011;27766;52.174;5.456;2023-07-20T06:32:00;2.85;;;1.67;;
42110;SDS011;27766;52.174;5.456;2023-07-20T06:34:28;2.58;;;1.90;;
42110;SDS011;27766;52.174;5.456;2023-07-20T06:36:56;2.65;;;1.77;;
42110;SDS011;27766;52.174;5.456;2023-07-20T06:39:24;2.60;;;1.40;;
42110;SDS011;27766;52.174;5.456;2023-07-20T06:41:54;1.73;;;1.52;;
42110;SDS011;27766;52.174;5.456;2023-07-20T06:44:22;1.80;;;1.23;;
42110;SDS011;27766;52.174;5.456;2023-07-20T06:46:49;2.25;;;1.10;;
42110;SDS011;27766;52.174;5.456;2023-07-20T06:49:26;3.13;;;1.13;;
42110;SDS011;27766;52.174;5.456;2023-07-20T06:51:54;1.90;;;1.42;;
42110;SDS011;27766;52.174;5.456;2023-07-20T06:54:22;2.55;;;1.20;;
42110;SDS011;27766;52.174;5.456;2023-07-20T06:56:51;3.38;;;1.25;;
42110;SDS011;27766;52.174;5.456;2023-07-20T06:59:22;1.25;;;0.90;;
42110;SDS011;27766;52.174;5.456;2023-07-20T07:01:49;0.85;;;0.73;;
42110;SDS011;27766;52.174;5.456;2023-07-20T07:04:17;1.98;;;1.17;;
42110;SDS011;27766;52.174;5.456;2023-07-20T07:06:44;1.25;;;0.80;;
42110;SDS011;27766;52.174;5.456;2023-07-20T07:09:12;1.00;;;0.90;;
42110;SDS011;27766;52.174;5.456;2023-07-20T07:11:40;1.42;;;1.02;;
42110;SDS011;27766;52.174;5.456;2023-07-20T07:14:07;1.60;;;0.80;;
42110;SDS011;27766;52.174;5.456;2023-07-20T07:16:34;2.22;;;1.00;;
42110;SDS011;27766;52.174;5.456;2023-07-20T07:19:05;1.08;;;0.80;;
42110;SDS011;27766;52.174;5.456;2023-07-20T07:21:34;2.20;;;0.63;;
42110;SDS011;27766;52.174;5.456;2023-07-20T07:24:01;3.30;;;0.90;;
42110;SDS011;27766;52.174;5.456;2023-07-20T07:26:28;1.55;;;0.93;;
42110;SDS011;27766;52.174;5.456;2023-07-20T07:28:55;1.27;;;0.88;;
42110;SDS011;27766;52.174;5.456;2023-07-20T07:31:24;1.42;;;0.77;;
42110;SDS011;27766;52.174;5.456;2023-07-20T07:33:52;0.82;;;0.77;;
42110;SDS011;27766;52.174;5.456;2023-07-20T07:36:19;2.80;;;0.85;;
42110;SDS011;27766;52.174;5.456;2023-07-20T07:38:47;0.93;;;0.70;;
42110;SDS011;27766;52.174;5.456;2023-07-20T07:41:34;1.77;;;0.77;;
42110;SDS011;27766;52.174;5.456;2023-07-20T07:44:02;1.65;;;1.08;;
42110;SDS011;27766;52.174;5.456;2023-07-20T07:46:29;0.70;;;0.63;;
42110;SDS011;27766;52.174;5.456;2023-07-20T07:48:56;1.45;;;0.73;;
42110;SDS011;27766;52.174;5.456;2023-07-20T07:51:24;0.68;;;0.50;;
42110;SDS011;27766;52.174;5.456;2023-07-20T07:53:51;1.38;;;0.55;;
42110;SDS011;27766;52.174;5.456;2023-07-20T07:56:19;0.70;;;0.50;;
42110;SDS011;27766;52.174;5.456;2023-07-20T07:58:50;1.83;;;0.75;;
42110;SDS011;27766;52.174;5.456;2023-07-20T08:01:19;1.98;;;0.77;;
42110;SDS011;27766;52.174;5.456;2023-07-20T08:03:46;1.90;;;0.77;;
42110;SDS011;27766;52.174;5.456;2023-07-20T08:06:14;1.95;;;0.82;;
42110;SDS011;27766;52.174;5.456;2023-07-20T08:08:41;1.23;;;0.70;;
42110;SDS011;27766;52.174;5.456;2023-07-20T08:11:12;1.65;;;0.80;;
42110;SDS011;27766;52.174;5.456;2023-07-20T08:13:41;2.20;;;0.75;;
42110;SDS011;27766;52.174;5.456;2023-07-20T08:16:08;0.30;;;0.20;;
42110;SDS011;27766;52.174;5.456;2023-07-20T08:18:36;0.52;;;0.40;;
42110;SDS011;27766;52.174;5.456;2023-07-20T08:21:03;0.25;;;0.20;;
42110;SDS011;27766;52.174;5.456;2023-07-20T08:23:31;0.30;;;0.20;;
42110;SDS011;27766;52.174;5.456;2023-07-20T08:25:58;0.32;;;0.30;;
42110;SDS011;27766;52.174;5.456;2023-07-20T08:28:25;0.20;;;0.20;;
42110;SDS011;27766;52.174;5.456;2023-07-20T08:30:53;0.90;;;0.20;;
42110;SDS011;27766;52.174;5.456;2023-07-20T08:33:21;0.85;;;0.50;;
42110;SDS011;27766;52.174;5.456;2023-07-20T08:35:50;1.13;;;0.45;;
42110;SDS011;27766;52.174;5.456;2023-07-20T08:38:18;0.73;;;0.40;;
42110;SDS011;27766;52.174;5.456;2023-07-20T08:40:45;0.65;;;0.30;;
42110;SDS011;27766;52.174;5.456;2023-07-20T08:43:14;1.83;;;0.60;;
42110;SDS011;27766;52.174;5.456;2023-07-20T08:45:45;0.60;;;0.30;;
42110;SDS011;27766;52.174;5.456;2023-07-20T08:48:14;0.68;;;0.40;;
42110;SDS011;27766;52.174;5.456;2023-07-20T08:50:43;1.00;;;0.43;;
42110;SDS011;27766;52.174;5.456;2023-07-20T08:53:12;1.58;;;0.30;;
42110;SDS011;27766;52.174;5.456;2023-07-20T08:55:41;0.88;;;0.40;;
42110;SDS011;27766;52.174;5.456;2023-07-20T08:58:11;0.93;;;0.40;;
42110;SDS011;27766;52.174;5.456;2023-07-20T09:00:41;0.90;;;0.50;;
42110;SDS011;27766;52.174;5.456;2023-07-20T09:03:12;0.40;;;0.32;;
42110;SDS011;27766;52.174;5.456;2023-07-20T09:05:41;0.57;;;0.50;;
42110;SDS011;27766;52.174;5.456;2023-07-20T09:08:08;0.40;;;0.40;;
42110;SDS011;27766;52.174;5.456;2023-07-20T09:10:35;2.42;;;0.45;;
42110;SDS011;27766;52.174;5.456;2023-07-20T09:13:03;0.50;;;0.30;;
42110;SDS011;27766;52.174;5.456;2023-07-20T09:15:30;0.47;;;0.30;;
42110;SDS011;27766;52.174;5.456;2023-07-20T09:17:58;0.80;;;0.40;;
42110;SDS011;27766;52.174;5.456;2023-07-20T09:20:30;0.75;;;0.30;;
42110;SDS011;27766;52.174;5.456;2023-07-20T09:23:03;0.60;;;0.30;;
42110;SDS011;27766;52.174;5.456;2023-07-20T09:25:33;0.68;;;0.50;;
42110;SDS011;27766;52.174;5.456;2023-07-20T09:28:02;0.70;;;0.30;;
42110;SDS011;27766;52.174;5.456;2023-07-20T09:30:31;1.00;;;0.40;;
42110;SDS011;27766;52.174;5.456;2023-07-20T09:32:59;0.80;;;0.50;;
42110;SDS011;27766;52.174;5.456;2023-07-20T09:35:27;0.38;;;0.30;;
42110;SDS011;27766;52.174;5.456;2023-07-20T09:38:07;0.38;;;0.30;;
42110;SDS011;27766;52.174;5.456;2023-07-20T09:40:38;2.60;;;0.52;;
42110;SDS011;27766;52.174;5.456;2023-07-20T09:43:09;1.20;;;0.35;;
42110;SDS011;27766;52.174;5.456;2023-07-20T09:45:40;1.65;;;0.30;;
42110;SDS011;27766;52.174;5.456;2023-07-20T09:48:11;3.85;;;0.40;;
42110;SDS011;27766;52.174;5.456;2023-07-20T09:50:43;2.17;;;0.75;;
42110;SDS011;27766;52.174;5.456;2023-07-20T09:53:17;1.15;;;0.50;;
42110;SDS011;27766;52.174;5.456;2023-07-20T09:55:45;0.70;;;0.40;;
42110;SDS011;27766;52.174;5.456;2023-07-20T09:58:14;2.35;;;0.40;;
42110;SDS011;27766;52.174;5.456;2023-07-20T10:00:43;0.30;;;0.20;;
42110;SDS011;27766;52.174;5.456;2023-07-20T10:03:20;0.90;;;0.50;;
42110;SDS011;27766;52.174;5.456;2023-07-20T10:05:54;0.70;;;0.30;;
42110;SDS011;27766;52.174;5.456;2023-07-20T10:08:24;0.63;;;0.30;;
42110;SDS011;27766;52.174;5.456;2023-07-20T10:10:55;0.85;;;0.52;;
42110;SDS011;27766;52.174;5.456;2023-07-20T10:13:27;1.92;;;0.38;;
42110;SDS011;27766;52.174;5.456;2023-07-20T10:18:57;0.30;;;0.30;;
42110;SDS011;27766;52.174;5.456;2023-07-20T10:21:30;1.58;;;0.40;;
42110;SDS011;27766;52.174;5.456;2023-07-20T10:24:01;0.50;;;0.50;;
42110;SDS011;27766;52.174;5.456;2023-07-20T10:26:30;0.57;;;0.32;;
42110;SDS011;27766;52.174;5.456;2023-07-20T10:29:00;0.50;;;0.30;;
42110;SDS011;27766;52.174;5.456;2023-07-20T10:31:28;1.73;;;0.70;;
42110;SDS011;27766;52.174;5.456;2023-07-20T10:33:58;2.28;;;0.65;;
42110;SDS011;27766;52.174;5.456;2023-07-20T10:36:27;1.23;;;0.70;;
42110;SDS011;27766;52.174;5.456;2023-07-20T10:38:57;0.60;;;0.30;;
42110;SDS011;27766;52.174;5.456;2023-07-20T10:41:28;2.35;;;0.45;;
42110;SDS011;27766;52.174;5.456;2023-07-20T10:44:01;1.45;;;0.82;;
42110;SDS011;27766;52.174;5.456;2023-07-20T10:49:08;0.60;;;0.30;;
42110;SDS011;27766;52.174;5.456;2023-07-20T10:51:39;3.90;;;0.20;;
42110;SDS011;27766;52.174;5.456;2023-07-20T10:54:08;0.30;;;0.30;;
42110;SDS011;27766;52.174;5.456;2023-07-20T10:56:56;0.63;;;0.50;;
42110;SDS011;27766;52.174;5.456;2023-07-20T10:59:45;0.32;;;0.25;;
42110;SDS011;27766;52.174;5.456;2023-07-20T11:02:17;1.30;;;0.35;;
42110;SDS011;27766;52.174;5.456;2023-07-20T11:04:47;2.22;;;0.30;;
42110;SDS011;27766;52.174;5.456;2023-07-20T11:07:17;2.42;;;0.65;;
42110;SDS011;27766;52.174;5.456;2023-07-20T11:10:12;0.20;;;0.20;;
42110;SDS011;27766;52.174;5.456;2023-07-20T11:15:44;2.33;;;0.88;;
42110;SDS011;27766;52.174;5.456;2023-07-20T11:18:35;1.40;;;0.50;;
42110;SDS011;27766;52.174;5.456;2023-07-20T11:21:07;1.05;;;0.45;;
42110;SDS011;27766;52.174;5.456;2023-07-20T11:23:37;3.58;;;0.55;;
42110;SDS011;27766;52.174;5.456;2023-07-20T11:26:05;2.10;;;0.40;;
42110;SDS011;27766;52.174;5.456;2023-07-20T11:28:33;0.70;;;0.30;;
42110;SDS011;27766;52.174;5.456;2023-07-20T11:31:01;2.50;;;0.30;;
42110;SDS011;27766;52.174;5.456;2023-07-20T11:33:28;1.27;;;0.35;;
42110;SDS011;27766;52.174;5.456;2023-07-20T11:35:56;0.73;;;0.17;;
42110;SDS011;27766;52.174;5.456;2023-07-20T11:38:24;3.42;;;1.70;;
42110;SDS011;27766;52.174;5.456;2023-07-20T11:40:51;1.13;;;0.30;;
42110;SDS011;27766;52.174;5.456;2023-07-20T11:43:19;1.30;;;0.47;;
42110;SDS011;27766;52.174;5.456;2023-07-20T11:45:50;1.23;;;0.28;;
42110;SDS011;27766;52.174;5.456;2023-07-20T11:48:17;1.05;;;0.32;;
42110;SDS011;27766;52.174;5.456;2023-07-20T11:50:44;0.20;;;0.20;;
42110;SDS011;27766;52.174;5.456;2023-07-20T11:53:12;1.27;;;0.45;;
42110;SDS011;27766;52.174;5.456;2023-07-20T11:55:40;0.30;;;0.30;;
42110;SDS011;27766;52.174;5.456;2023-07-20T11:58:09;0.20;;;0.20;;
42110;SDS011;27766;52.174;5.456;2023-07-20T12:00:37;0.93;;;0.57;;
42110;SDS011;27766;52.174;5.456;2023-07-20T12:03:06;0.90;;;0.38;;
42110;SDS011;27766;52.174;5.456;2023-07-20T12:05:34;0.70;;;0.30;;
42110;SDS011;27766;52.174;5.456;2023-07-20T12:08:14;0.80;;;0.38;;
42110;SDS011;27766;52.174;5.456;2023-07-20T12:10:42;0.43;;;0.20;;
42110;SDS011;27766;52.174;5.456;2023-07-20T12:13:10;0.13;;;0.10;;
42110;SDS011;27766;52.174;5.456;2023-07-20T12:15:41;0.40;;;0.30;;
42110;SDS011;27766;52.174;5.456;2023-07-20T12:18:09;0.17;;;0.10;;
42110;SDS011;27766;52.174;5.456;2023-07-20T12:20:36;0.55;;;0.20;;
42110;SDS011;27766;52.174;5.456;2023-07-20T12:23:05;0.30;;;0.20;;
42110;SDS011;27766;52.174;5.456;2023-07-20T12:28:13;0.95;;;0.20;;
42110;SDS011;27766;52.174;5.456;2023-07-20T12:30:42;3.88;;;0.38;;
42110;SDS011;27766;52.174;5.456;2023-07-20T12:33:14;0.10;;;0.10;;
42110;SDS011;27766;52.174;5.456;2023-07-20T12:35:43;0.50;;;0.20;;
42110;SDS011;27766;52.174;5.456;2023-07-20T12:38:10;0.45;;;0.30;;
42110;SDS011;27766;52.174;5.456;2023-07-20T12:40:37;0.80;;;0.35;;
42110;SDS011;27766;52.174;5.456;2023-07-20T12:43:05;0.35;;;0.20;;
42110;SDS011;27766;52.174;5.456;2023-07-20T12:45:33;0.95;;;0.30;;
42110;SDS011;27766;52.174;5.456;2023-07-20T12:48:01;2.95;;;0.43;;
42110;SDS011;27766;52.174;5.456;2023-07-20T12:50:28;1.75;;;0.30;;
42110;SDS011;27766;52.174;5.456;2023-07-20T12:52:56;0.43;;;0.30;;
42110;SDS011;27766;52.174;5.456;2023-07-20T12:55:24;0.70;;;0.40;;
42110;SDS011;27766;52.174;5.456;2023-07-20T12:57:51;1.02;;;0.28;;
42110;SDS011;27766;52.174;5.456;2023-07-20T13:00:19;1.02;;;0.40;;
42110;SDS011;27766;52.174;5.456;2023-07-20T13:02:47;0.98;;;0.38;;
42110;SDS011;27766;52.174;5.456;2023-07-20T13:05:15;0.30;;;0.20;;
42110;SDS011;27766;52.174;5.456;2023-07-20T13:07:44;0.73;;;0.30;;
42110;SDS011;27766;52.174;5.456;2023-07-20T13:10:14;0.30;;;0.20;;
42110;SDS011;27766;52.174;5.456;2023-07-20T13:12:41;0.38;;;0.30;;
42110;SDS011;27766;52.174;5.456;2023-07-20T13:15:09;0.38;;;0.30;;
42110;SDS011;27766;52.174;5.456;2023-07-20T13:17:38;1.40;;;0.60;;
42110;SDS011;27766;52.174;5.456;2023-07-20T13:20:06;2.35;;;0.50;;
42110;SDS011;27766;52.174;5.456;2023-07-20T13:22:37;0.30;;;0.28;;
42110;SDS011;27766;52.174;5.456;2023-07-20T13:25:05;0.50;;;0.43;;
42110;SDS011;27766;52.174;5.456;2023-07-20T13:27:33;0.50;;;0.47;;
42110;SDS011;27766;52.174;5.456;2023-07-20T13:30:01;1.42;;;0.50;;
42110;SDS011;27766;52.174;5.456;2023-07-20T13:32:33;2.08;;;0.73;;
42110;SDS011;27766;52.174;5.456;2023-07-20T13:35:01;0.75;;;0.30;;
42110;SDS011;27766;52.174;5.456;2023-07-20T13:37:29;0.60;;;0.40;;
42110;SDS011;27766;52.174;5.456;2023-07-20T13:39:56;2.17;;;0.38;;
42110;SDS011;27766;52.174;5.456;2023-07-20T13:42:24;0.63;;;0.40;;
42110;SDS011;27766;52.174;5.456;2023-07-20T13:44:51;0.93;;;0.50;;
42110;SDS011;27766;52.174;5.456;2023-07-20T13:47:19;0.40;;;0.32;;
42110;SDS011;27766;52.174;5.456;2023-07-20T13:49:48;5.57;;;0.52;;
42110;SDS011;27766;52.174;5.456;2023-07-20T13:52:16;0.63;;;0.50;;
42110;SDS011;27766;52.174;5.456;2023-07-20T13:54:47;0.63;;;0.40;;
42110;SDS011;27766;52.174;5.456;2023-07-20T13:57:17;0.60;;;0.50;;
42110;SDS011;27766;52.174;5.456;2023-07-20T13:59:44;2.47;;;0.98;;
42110;SDS011;27766;52.174;5.456;2023-07-20T14:02:13;0.50;;;0.45;;
42110;SDS011;27766;52.174;5.456;2023-07-20T14:04:44;0.68;;;0.43;;
42110;SDS011;27766;52.174;5.456;2023-07-20T14:07:12;0.63;;;0.40;;
42110;SDS011;27766;52.174;5.456;2023-07-20T14:09:43;0.40;;;0.40;;
42110;SDS011;27766;52.174;5.456;2023-07-20T14:12:13;1.40;;;0.70;;
42110;SDS011;27766;52.174;5.456;2023-07-20T14:14:42;0.60;;;0.50;;
42110;SDS011;27766;52.174;5.456;2023-07-20T14:17:09;0.63;;;0.40;;
42110;SDS011;27766;52.174;5.456;2023-07-20T14:19:37;1.65;;;0.60;;
42110;SDS011;27766;52.174;5.456;2023-07-20T14:22:04;1.00;;;0.50;;
42110;SDS011;27766;52.174;5.456;2023-07-20T14:24:32;0.95;;;0.60;;
42110;SDS011;27766;52.174;5.456;2023-07-20T14:27:00;1.55;;;0.57;;
42110;SDS011;27766;52.174;5.456;2023-07-20T14:29:28;0.75;;;0.55;;
42110;SDS011;27766;52.174;5.456;2023-07-20T14:31:58;0.63;;;0.47;;
42110;SDS011;27766;52.174;5.456;2023-07-20T14:34:25;2.00;;;0.90;;
42110;SDS011;27766;52.174;5.456;2023-07-20T14:36:53;0.43;;;0.35;;
42110;SDS011;27766;52.174;5.456;2023-07-20T14:39:20;2.38;;;0.90;;
42110;SDS011;27766;52.174;5.456;2023-07-20T14:41:49;1.52;;;1.02;;
42110;SDS011;27766;52.174;5.456;2023-07-20T14:44:17;1.42;;;0.73;;
42110;SDS011;27766;52.174;5.456;2023-07-20T14:46:44;0.40;;;0.40;;
42110;SDS011;27766;52.174;5.456;2023-07-20T14:49:25;0.68;;;0.40;;
42110;SDS011;27766;52.174;5.456;2023-07-20T14:51:53;1.52;;;0.55;;
42110;SDS011;27766;52.174;5.456;2023-07-20T14:54:20;1.33;;;0.75;;
42110;SDS011;27766;52.174;5.456;2023-07-20T14:56:48;1.08;;;0.80;;
42110;SDS011;27766;52.174;5.456;2023-07-20T14:59:18;1.80;;;0.80;;
42110;SDS011;27766;52.174;5.456;2023-07-20T15:01:46;5.68;;;2.03;;
42110;SDS011;27766;52.174;5.456;2023-07-20T15:04:14;1.15;;;0.80;;
42110;SDS011;27766;52.174;5.456;2023-07-20T15:06:42;0.95;;;0.63;;
42110;SDS011;27766;52.174;5.456;2023-07-20T15:09:10;12.35;;;3.53;;
42110;SDS011;27766;52.174;5.456;2023-07-20T15:11:38;1.73;;;1.30;;